KMWK

Mount Airy / Surry County Airport

Mount Airy, North Carolina, USA
METAR KMWK 151820Z AUTO 00000KT 1 1/4SM RA OVC003 09/08 A2994 RMK AO2 T00930080
Observed Flight Rules
Dec-15 @ 18:20 UTC (21 minutes ago) Instrument Flight Rules
Visibility Clouds Conditions
1 1/4 miles
  • Overcast at 300' AGL
  • Rain
Temperatures Readings
Current 9°C / 48°F
Dewpoint 8°C / 46°F
Humidity 94%
Altimeter 29.94" Hg
Pressure 1014 hPa
Elevation 380
METAR KMWK 151820Z AUTO 00000KT 1 1/4SM RA OVC003 09/08 A2994 RMK AO2 T00930080
Observed Flight Rules
Dec-15 @ 18:20 UTC
(21 minutes ago)
LIFR
Clouds
  • Overcast at 300' AGL
Conditions
  • Rain
Temperature Dewpoint
9°C / 48°F 8°C / 46°F
Humidity Altimeter Pressure
94% 29.94" Hg 1014 hPa